Time;durP1;ratioP1;P1;durP2;ratioP2;P2;SDS_P1;SDS_P2;PMS_P1;PMS_P2;Temp;Humidity;BMP_temperature;BMP_pressure;BME280_temperature;BME280_humidity;BME280_pressure;Samples;Min_cycle;Max_cycle;Signal;HPM_P1;HPM_P2
2021/12/25 06:00:44;;;;;;;8.75;5.30;;;9.00;99.90;;;;;;5829883;23;20125;-87
2021/12/25 06:03:11;;;;;;;8.93;5.43;;;9.00;99.90;;;;;;4966002;28;20047;-82
2021/12/25 06:05:39;;;;;;;10.00;5.72;;;9.00;99.90;;;;;;4964477;28;20471;-84
2021/12/25 06:08:06;;;;;;;9.13;5.38;;;9.00;99.90;;;;;;4963657;28;20507;-82
2021/12/25 06:10:34;;;;;;;9.63;5.30;;;9.00;99.90;;;;;;4963459;28;20489;-84
2021/12/25 06:13:01;;;;;;;10.50;5.53;;;9.00;99.90;;;;;;4966887;28;20518;-86
2021/12/25 06:15:29;;;;;;;9.85;5.55;;;9.00;99.90;;;;;;4972931;28;20047;-87
2021/12/25 06:17:58;;;;;;;9.13;5.50;;;9.00;99.90;;;;;;4976108;28;20051;-86
2021/12/25 06:20:25;;;;;;;7.90;4.78;;;9.00;99.90;;;;;;4968770;28;20047;-85
2021/12/25 06:22:52;;;;;;;9.15;5.40;;;9.00;99.90;;;;;;4960985;28;20071;-86
2021/12/25 06:25:19;;;;;;;9.32;5.40;;;9.00;99.90;;;;;;4959707;28;20511;-86
2021/12/25 06:27:47;;;;;;;8.88;4.95;;;9.00;99.90;;;;;;4968533;28;20047;-86
2021/12/25 06:30:14;;;;;;;9.05;5.18;;;9.00;99.90;;;;;;4962587;28;20481;-85
2021/12/25 06:32:43;;;;;;;10.60;5.10;;;9.00;99.90;;;;;;4969315;28;20050;-87
2021/12/25 06:35:12;;;;;;;9.27;4.95;;;9.00;99.90;;;;;;4950721;28;20126;-83
2021/12/25 06:37:44;;;;;;;8.82;4.88;;;9.00;99.90;;;;;;4981683;28;20038;-85
2021/12/25 06:40:12;;;;;;;8.00;5.15;;;9.00;99.90;;;;;;4976991;28;20050;-84
2021/12/25 06:42:40;;;;;;;8.77;5.07;;;9.10;99.90;;;;;;4960507;28;20492;-83
2021/12/25 06:45:08;;;;;;;9.15;4.93;;;9.10;99.90;;;;;;4962779;28;20090;-85
2021/12/25 06:47:35;;;;;;;9.85;4.75;;;9.00;99.90;;;;;;4962134;28;20468;-87
2021/12/25 06:50:04;;;;;;;8.18;4.88;;;9.00;99.90;;;;;;4950583;28;20047;-90
2021/12/25 06:52:32;;;;;;;7.93;4.43;;;9.10;99.90;;;;;;4954858;28;20053;-89
2021/12/25 06:54:59;;;;;;;10.25;5.30;;;9.10;99.90;;;;;;4957075;28;20055;-92
2021/12/25 06:57:28;;;;;;;7.28;4.78;;;9.00;99.90;;;;;;4942103;28;20042;-89
2021/12/25 06:59:55;;;;;;;7.95;4.70;;;9.10;99.90;;;;;;4970062;28;20044;-89
2021/12/25 07:02:22;;;;;;;7.38;4.57;;;9.00;99.90;;;;;;4943793;29;20059;-90
2021/12/25 07:04:49;;;;;;;9.35;5.53;;;9.00;99.90;;;;;;4944242;29;20150;-89
2021/12/25 07:07:17;;;;;;;8.48;5.68;;;9.00;99.90;;;;;;4947748;28;20086;-88
2021/12/25 07:09:46;;;;;;;8.27;4.65;;;9.00;99.90;;;;;;4949581;28;20047;-87
2021/12/25 07:12:13;;;;;;;8.98;5.00;;;9.00;99.90;;;;;;4954026;29;20083;-86
2021/12/25 07:14:40;;;;;;;7.47;4.43;;;9.00;99.90;;;;;;4948269;29;20078;-85
2021/12/25 07:17:07;;;;;;;9.35;4.63;;;9.00;99.90;;;;;;4943720;28;20162;-86
2021/12/25 07:19:34;;;;;;;8.48;4.65;;;9.00;99.90;;;;;;4945772;29;20122;-87
2021/12/25 07:22:03;;;;;;;7.60;4.45;;;9.00;99.90;;;;;;4939168;28;20051;-88
2021/12/25 07:24:30;;;;;;;8.27;4.72;;;9.00;99.90;;;;;;4939021;29;20052;-87
2021/12/25 07:27:03;;;;;;;7.45;4.40;;;9.00;99.90;;;;;;4947926;28;20513;-84
2021/12/25 07:29:30;;;;;;;7.47;4.32;;;9.00;99.90;;;;;;4939638;29;20056;-86
2021/12/25 07:31:57;;;;;;;8.50;4.88;;;9.00;99.90;;;;;;4946304;29;20146;-86
2021/12/25 07:34:24;;;;;;;8.50;4.53;;;9.00;99.90;;;;;;4941114;29;20464;-85
2021/12/25 07:36:52;;;;;;;7.97;4.53;;;9.00;99.90;;;;;;4945341;28;20126;-87
2021/12/25 07:39:19;;;;;;;9.60;4.72;;;9.00;99.90;;;;;;4943053;28;20059;-86
2021/12/25 07:41:46;;;;;;;9.38;4.57;;;9.00;99.90;;;;;;4939540;29;20079;-87
2021/12/25 07:44:14;;;;;;;9.10;4.88;;;9.00;99.90;;;;;;4941222;28;20142;-87
2021/12/25 07:46:42;;;;;;;8.60;5.07;;;9.00;99.90;;;;;;4936504;29;20083;-83
2021/12/25 07:49:15;;;;;;;8.63;5.20;;;8.90;99.90;;;;;;4943478;29;20095;-84
2021/12/25 07:51:42;;;;;;;8.80;5.20;;;9.00;99.90;;;;;;4943579;28;20127;-85
2021/12/25 07:54:10;;;;;;;8.60;4.60;;;8.90;99.90;;;;;;4943092;29;20138;-86
2021/12/25 07:56:38;;;;;;;7.38;4.55;;;9.00;99.90;;;;;;4954303;28;20508;-86
2021/12/25 07:59:06;;;;;;;11.30;5.57;;;8.90;99.90;;;;;;4938499;28;20142;-86
2021/12/25 08:01:35;;;;;;;12.93;6.80;;;8.90;99.90;;;;;;4952036;28;20082;-83
2021/12/25 08:04:03;;;;;;;12.55;6.65;;;8.90;99.90;;;;;;4961190;28;20437;-86
2021/12/25 08:06:30;;;;;;;8.13;4.45;;;8.90;99.90;;;;;;4966450;28;20129;-83
2021/12/25 08:09:00;;;;;;;8.32;4.93;;;8.90;99.90;;;;;;4964599;28;20509;-85
2021/12/25 08:11:27;;;;;;;8.70;5.10;;;8.90;99.90;;;;;;4963603;28;20043;-79
2021/12/25 08:13:55;;;;;;;8.73;5.15;;;8.80;99.90;;;;;;4963588;28;20126;-80
2021/12/25 08:16:22;;;;;;;9.80;5.57;;;8.80;99.90;;;;;;4958243;28;20552;-79
2021/12/25 08:18:51;;;;;;;10.63;5.28;;;8.80;99.90;;;;;;4962530;28;20133;-88
2021/12/25 08:21:18;;;;;;;8.75;5.65;;;8.80;99.90;;;;;;4968941;28;20057;-90
2021/12/25 08:23:47;;;;;;;9.00;5.85;;;8.90;99.90;;;;;;4971779;28;20054;-89
2021/12/25 08:26:14;;;;;;;10.40;6.03;;;8.90;99.90;;;;;;4966684;28;20054;-90
2021/12/25 08:28:41;;;;;;;9.95;5.57;;;8.80;99.90;;;;;;4955212;28;20133;-87
2021/12/25 08:31:08;;;;;;;8.90;5.70;;;8.80;99.90;;;;;;4960876;28;20140;-87
2021/12/25 08:33:36;;;;;;;11.82;6.20;;;8.80;99.90;;;;;;4930191;28;20134;-89
2021/12/25 08:36:05;;;;;;;10.07;5.63;;;8.80;99.90;;;;;;4978253;28;20054;-89
2021/12/25 08:38:32;;;;;;;10.63;5.70;;;8.80;99.90;;;;;;4982330;28;20063;-87
2021/12/25 08:40:59;;;;;;;10.88;5.68;;;8.80;99.90;;;;;;4977233;28;20050;-88
2021/12/25 08:43:33;;;;;;;10.70;5.63;;;8.80;99.90;;;;;;4986278;28;20066;-88
2021/12/25 08:46:11;;;;;;;9.67;6.03;;;8.80;99.90;;;;;;4984428;28;20052;-89
2021/12/25 08:48:38;;;;;;;12.30;6.93;;;8.80;99.90;;;;;;4974678;28;20051;-89
2021/12/25 08:51:07;;;;;;;11.45;6.85;;;8.80;99.90;;;;;;4952007;28;20474;-84
2021/12/25 08:53:34;;;;;;;11.02;6.70;;;8.80;99.90;;;;;;4980944;28;20045;-89
2021/12/25 08:56:01;;;;;;;11.13;6.45;;;8.80;99.90;;;;;;4988125;28;20074;-90
2021/12/25 08:58:31;;;;;;;10.68;6.35;;;8.70;99.90;;;;;;4976684;28;20055;-89
2021/12/25 09:01:01;;;;;;;10.65;6.22;;;8.80;99.90;;;;;;4986286;28;20078;-89
2021/12/25 09:03:30;;;;;;;11.48;6.78;;;8.80;99.90;;;;;;4985009;28;20098;-88
2021/12/25 09:05:59;;;;;;;10.00;6.20;;;8.80;99.90;;;;;;4987874;28;20059;-88
2021/12/25 09:08:29;;;;;;;10.10;5.75;;;8.80;99.90;;;;;;4981030;28;20104;-90
2021/12/25 09:10:56;;;;;;;9.85;6.05;;;8.90;99.90;;;;;;4981992;28;20067;-88
2021/12/25 09:13:24;;;;;;;11.95;6.40;;;8.90;99.90;;;;;;4980984;28;20031;-89
2021/12/25 09:15:51;;;;;;;10.80;6.40;;;8.90;99.90;;;;;;4984100;28;20039;-90
2021/12/25 09:18:18;;;;;;;23.13;10.45;;;9.00;99.90;;;;;;4985906;28;20062;-88
2021/12/25 09:20:46;;;;;;;19.52;10.23;;;9.00;99.90;;;;;;4982909;28;20071;-86
2021/12/25 09:23:13;;;;;;;8.77;5.25;;;9.00;99.90;;;;;;4959155;28;20137;-87
2021/12/25 09:25:42;;;;;;;9.52;4.82;;;9.00;99.90;;;;;;4970274;28;20069;-86
2021/12/25 09:28:09;;;;;;;9.80;6.15;;;9.10;99.90;;;;;;4975654;28;20481;-87
2021/12/25 09:30:42;;;;;;;9.85;5.38;;;9.10;99.90;;;;;;4968549;28;20483;-90
2021/12/25 09:33:09;;;;;;;8.07;4.82;;;9.10;99.90;;;;;;4972213;28;20500;-86
2021/12/25 09:35:45;;;;;;;10.07;5.47;;;9.10;99.90;;;;;;4971044;28;20050;-86
2021/12/25 09:38:12;;;;;;;9.35;5.45;;;9.10;99.90;;;;;;4976941;28;20133;-86
2021/12/25 09:40:41;;;;;;;9.25;4.93;;;9.10;99.90;;;;;;4965734;28;20400;-85
2021/12/25 09:43:08;;;;;;;8.55;5.13;;;9.20;99.90;;;;;;4960227;28;20588;-86
2021/12/25 09:45:36;;;;;;;9.43;5.40;;;9.20;99.90;;;;;;4940939;29;20468;-87
2021/12/25 09:48:04;;;;;;;9.68;6.03;;;9.20;99.90;;;;;;4965851;28;20074;-82
2021/12/25 09:50:31;;;;;;;9.05;5.53;;;9.20;99.90;;;;;;4970081;28;20047;-83
2021/12/25 09:52:58;;;;;;;8.88;5.75;;;9.20;99.90;;;;;;4964490;28;20137;-84
2021/12/25 09:55:25;;;;;;;8.68;5.13;;;9.20;99.90;;;;;;4965245;28;20520;-85
2021/12/25 09:57:53;;;;;;;9.75;5.68;;;9.20;99.90;;;;;;4962939;28;20463;-86
2021/12/25 10:00:23;;;;;;;9.90;5.90;;;9.20;99.90;;;;;;4964123;28;20695;-84
2021/12/25 10:02:55;;;;;;;10.98;5.25;;;9.20;99.90;;;;;;4949219;28;20585;-83
2021/12/25 10:05:30;;;;;;;8.60;4.78;;;9.20;99.90;;;;;;4971892;28;20134;-83
2021/12/25 10:08:07;;;;;;;8.15;5.03;;;9.30;99.90;;;;;;4975450;28;20089;-85
2021/12/25 10:10:41;;;;;;;10.18;5.03;;;9.30;99.90;;;;;;4958646;28;20050;-86
2021/12/25 10:13:22;;;;;;;8.63;4.97;;;9.30;99.90;;;;;;4962757;28;20337;-84
2021/12/25 10:15:50;;;;;;;8.05;4.97;;;9.30;99.90;;;;;;4960632;28;20058;-84
2021/12/25 10:18:29;;;;;;;8.82;5.40;;;9.30;99.90;;;;;;4956084;28;20138;-83
2021/12/25 10:20:57;;;;;;;11.45;7.20;;;9.30;99.90;;;;;;4965124;28;20079;-83
2021/12/25 10:23:29;;;;;;;11.93;7.00;;;9.30;99.90;;;;;;4973469;28;20138;-85
2021/12/25 10:26:00;;;;;;;10.85;6.03;;;9.30;99.90;;;;;;4968433;28;20063;-83
2021/12/25 10:28:36;;;;;;;10.27;5.22;;;9.40;99.90;;;;;;4969322;28;20560;-87
2021/12/25 10:31:07;;;;;;;8.88;5.18;;;9.40;99.90;;;;;;4972996;28;20146;-82
2021/12/25 10:33:41;;;;;;;9.05;5.90;;;9.40;99.90;;;;;;4964108;28;20114;-84
2021/12/25 10:36:22;;;;;;;7.47;4.70;;;9.40;99.90;;;;;;4964269;28;20138;-82
2021/12/25 10:38:59;;;;;;;9.27;4.88;;;9.50;99.90;;;;;;4965630;28;20141;-81
2021/12/25 10:41:27;;;;;;;7.90;4.97;;;9.50;99.90;;;;;;4965786;28;20496;-82
2021/12/25 10:44:15;;;;;;;9.13;4.97;;;9.50;99.90;;;;;;4965583;28;20070;-81
2021/12/25 10:46:51;;;;;;;11.30;5.70;;;9.50;99.90;;;;;;4967722;28;20146;-82
2021/12/25 10:49:19;;;;;;;9.02;5.15;;;9.60;99.90;;;;;;4965942;28;20219;-83
2021/12/25 10:51:47;;;;;;;9.02;5.53;;;9.60;99.90;;;;;;4956210;28;20134;-81
2021/12/25 10:54:17;;;;;;;9.60;5.88;;;9.60;99.90;;;;;;4964282;28;20089;-81
2021/12/25 10:56:47;;;;;;;10.75;6.50;;;9.60;99.90;;;;;;4954852;29;20383;-81
2021/12/25 10:59:18;;;;;;;27.10;14.52;;;9.60;99.90;;;;;;4955059;29;20130;-80
2021/12/25 11:01:49;;;;;;;16.95;9.77;;;9.60;99.90;;;;;;4956178;28;20133;-80
2021/12/25 11:04:28;;;;;;;13.05;7.55;;;9.60;99.90;;;;;;4970792;28;20125;-80
2021/12/25 11:06:57;;;;;;;10.23;6.55;;;9.60;99.90;;;;;;4960120;28;20449;-80
2021/12/25 11:09:24;;;;;;;9.93;5.65;;;9.60;99.90;;;;;;4966581;28;20047;-79
2021/12/25 11:12:19;;;;;;;11.05;6.00;;;9.60;99.90;;;;;;4967259;28;20504;-80
2021/12/25 11:14:49;;;;;;;10.82;6.28;;;9.60;99.90;;;;;;4957528;28;20130;-80
2021/12/25 11:17:25;;;;;;;9.50;5.90;;;9.60;99.90;;;;;;4966630;28;20043;-79
2021/12/25 11:19:59;;;;;;;9.63;5.82;;;9.70;99.90;;;;;;4964995;28;20058;-80
2021/12/25 11:22:28;;;;;;;9.75;6.07;;;9.70;99.90;;;;;;4968350;28;20047;-79
2021/12/25 11:24:58;;;;;;;9.80;5.50;;;9.70;99.90;;;;;;4962945;28;20059;-79
2021/12/25 11:27:25;;;;;;;9.27;6.15;;;9.70;99.90;;;;;;4964165;28;20043;-79
2021/12/25 11:29:54;;;;;;;10.13;6.15;;;9.70;99.90;;;;;;4965681;28;20125;-79
2021/12/25 11:32:21;;;;;;;9.40;6.32;;;9.70;99.90;;;;;;4967691;28;20128;-80
2021/12/25 11:34:51;;;;;;;10.88;5.78;;;9.80;99.90;;;;;;4958291;28;20039;-78
2021/12/25 11:37:19;;;;;;;9.40;5.18;;;9.80;99.90;;;;;;4955180;28;20138;-80
2021/12/25 11:39:52;;;;;;;11.85;5.68;;;9.80;99.90;;;;;;4964994;28;20138;-79
2021/12/25 11:42:21;;;;;;;9.45;5.85;;;9.80;99.90;;;;;;4964535;28;20047;-77
2021/12/25 11:44:52;;;;;;;8.85;5.57;;;9.90;99.90;;;;;;4969192;28;20046;-83
2021/12/25 11:47:38;;;;;;;10.05;6.30;;;9.90;99.90;;;;;;4966562;28;20465;-80
2021/12/25 11:50:09;;;;;;;11.50;6.45;;;9.90;99.90;;;;;;4965873;28;20147;-80
2021/12/25 11:52:42;;;;;;;10.45;6.60;;;10.00;99.90;;;;;;4965488;28;20044;-76
2021/12/25 11:55:35;;;;;;;10.43;6.22;;;10.00;99.90;;;;;;4968433;28;20047;-76
2021/12/25 11:58:17;;;;;;;12.00;6.38;;;10.00;99.90;;;;;;4963700;28;20055;-77
2021/12/25 12:00:47;;;;;;;9.60;6.35;;;10.00;99.90;;;;;;4960035;28;20055;-79
2021/12/25 12:03:44;;;;;;;10.18;6.18;;;10.00;99.90;;;;;;4967273;28;20061;-80
2021/12/25 12:06:12;;;;;;;11.35;6.22;;;10.00;99.90;;;;;;4962275;28;20069;-79
2021/12/25 12:09:09;;;;;;;13.02;6.50;;;10.00;99.90;;;;;;4958117;28;20640;-79
2021/12/25 12:11:40;;;;;;;10.10;5.90;;;10.00;99.90;;;;;;4911658;28;20055;-79
2021/12/25 12:14:16;;;;;;;9.40;5.60;;;10.00;99.90;;;;;;4952250;28;20091;-79
2021/12/25 12:16:48;;;;;;;8.25;5.50;;;10.00;99.90;;;;;;4954234;28;20050;-78
2021/12/25 12:19:46;;;;;;;11.48;6.38;;;10.10;99.90;;;;;;4961446;28;20481;-79
2021/12/25 12:22:47;;;;;;;9.80;5.68;;;10.10;99.90;;;;;;4953534;28;20048;-77
2021/12/25 12:25:24;;;;;;;10.05;5.50;;;10.10;99.90;;;;;;4960116;28;20481;-81
2021/12/25 12:27:54;;;;;;;9.93;5.50;;;10.10;99.90;;;;;;4966237;28;20110;-79
2021/12/25 12:30:45;;;;;;;10.38;5.78;;;10.10;99.90;;;;;;4955044;28;20059;-81
2021/12/25 12:33:34;;;;;;;9.95;5.95;;;10.20;99.90;;;;;;4953528;28;20047;-81
2021/12/25 12:36:17;;;;;;;12.57;6.43;;;10.20;99.90;;;;;;4954329;28;20051;-80
2021/12/25 12:38:47;;;;;;;10.18;6.05;;;10.30;99.90;;;;;;4962067;28;20054;-79
2021/12/25 12:41:28;;;;;;;10.68;5.93;;;10.30;99.90;;;;;;4954544;28;20414;-80
2021/12/25 12:44:08;;;;;;;10.93;6.25;;;10.30;99.90;;;;;;4959356;28;20066;-79
2021/12/25 12:46:58;;;;;;;10.65;6.47;;;10.30;99.90;;;;;;4957040;28;20499;-78
2021/12/25 12:49:29;;;;;;;11.20;6.50;;;10.30;99.90;;;;;;4953999;28;20515;-80
2021/12/25 12:52:22;;;;;;;11.98;6.63;;;10.30;99.90;;;;;;4954452;28;20453;-80
2021/12/25 12:54:51;;;;;;;12.52;7.13;;;10.30;99.90;;;;;;4960195;28;20126;-79
2021/12/25 12:57:28;;;;;;;11.73;6.53;;;10.30;99.90;;;;;;4966603;28;20408;-81
2021/12/25 12:59:58;;;;;;;11.07;6.97;;;10.30;99.90;;;;;;4970700;28;20051;-81
2021/12/25 13:02:30;;;;;;;10.85;6.53;;;10.30;99.90;;;;;;4952823;28;20142;-78
2021/12/25 13:05:01;;;;;;;11.85;7.72;;;10.20;99.90;;;;;;4953248;29;20043;-79
2021/12/25 13:07:33;;;;;;;10.60;6.85;;;10.30;99.90;;;;;;4952791;29;20086;-79
2021/12/25 13:10:13;;;;;;;11.93;7.22;;;10.20;99.90;;;;;;4953075;29;20497;-80
2021/12/25 13:12:44;;;;;;;10.27;6.63;;;10.20;99.90;;;;;;4960125;28;20098;-80
2021/12/25 13:15:18;;;;;;;11.98;7.43;;;10.30;99.90;;;;;;4972090;28;20050;-78
2021/12/25 13:17:53;;;;;;;11.75;7.22;;;10.30;99.90;;;;;;4963816;28;20075;-80
2021/12/25 13:20:37;;;;;;;11.40;7.03;;;10.30;99.90;;;;;;4954292;28;20097;-81
2021/12/25 13:23:07;;;;;;;;;;;10.20;99.90;;;;;;4957572;28;20453;-82
2021/12/25 13:25:35;;;;;;;27.23;13.65;;;10.30;99.90;;;;;;4957323;28;19926;-83
2021/12/25 13:28:05;;;;;;;11.82;7.78;;;10.30;99.90;;;;;;4953254;28;20110;-81
2021/12/25 13:30:33;;;;;;;12.95;7.93;;;10.20;99.90;;;;;;4956719;28;20047;-82
2021/12/25 13:33:13;;;;;;;13.00;8.07;;;10.20;99.90;;;;;;4953291;28;20139;-84
2021/12/25 13:35:42;;;;;;;10.98;7.32;;;10.20;99.90;;;;;;4957043;28;20485;-83
2021/12/25 13:38:11;;;;;;;12.18;7.18;;;10.10;99.90;;;;;;4953776;28;20572;-85
2021/12/25 13:40:39;;;;;;;13.10;7.72;;;10.10;99.90;;;;;;4953343;29;20400;-82
2021/12/25 13:43:09;;;;;;;13.52;8.00;;;10.00;99.90;;;;;;4941399;28;20061;-83
2021/12/25 13:45:37;;;;;;;11.63;7.47;;;10.00;99.90;;;;;;4970017;28;20169;-83
2021/12/25 13:48:06;;;;;;;13.05;7.70;;;10.00;99.90;;;;;;4959567;28;20043;-84
2021/12/25 13:50:34;;;;;;;12.13;7.70;;;9.90;99.90;;;;;;4955643;28;20102;-83
2021/12/25 13:53:06;;;;;;;12.63;8.07;;;9.90;99.90;;;;;;4938724;28;20087;-85
2021/12/25 13:55:36;;;;;;;13.73;8.00;;;9.90;99.90;;;;;;4957465;28;20077;-81
2021/12/25 13:58:09;;;;;;;12.55;7.93;;;9.90;99.90;;;;;;4955826;28;20055;-83
2021/12/25 14:00:40;;;;;;;13.23;8.27;;;9.90;99.90;;;;;;4954668;28;20054;-81
2021/12/25 14:03:09;;;;;;;12.40;7.97;;;10.00;99.90;;;;;;4959717;28;20054;-81
2021/12/25 14:05:39;;;;;;;11.88;7.07;;;10.00;99.90;;;;;;4958853;28;20047;-81
2021/12/25 14:08:07;;;;;;;13.73;8.15;;;10.00;99.90;;;;;;4947267;28;20481;-82
2021/12/25 14:10:39;;;;;;;14.05;8.23;;;10.00;99.90;;;;;;4959736;28;20051;-80
2021/12/25 14:13:16;;;;;;;13.57;8.55;;;10.00;99.90;;;;;;4962641;28;20054;-79
2021/12/25 14:15:49;;;;;;;12.25;7.50;;;10.10;99.90;;;;;;4965596;28;20051;-77
2021/12/25 14:18:17;;;;;;;12.50;7.32;;;10.10;99.90;;;;;;4968307;28;20129;-82
2021/12/25 14:20:44;;;;;;;12.70;7.32;;;10.10;99.90;;;;;;4965206;28;20436;-81
2021/12/25 14:23:15;;;;;;;13.27;7.22;;;10.10;99.90;;;;;;4953403;28;20047;-81
2021/12/25 14:25:53;;;;;;;12.32;7.68;;;10.20;99.90;;;;;;4962344;28;20133;-82
2021/12/25 14:28:23;;;;;;;9.77;6.13;;;10.20;99.90;;;;;;4960426;28;20516;-82
2021/12/25 14:31:02;;;;;;;10.48;6.85;;;10.20;99.90;;;;;;4956821;28;20051;-81
2021/12/25 14:33:33;;;;;;;9.77;6.40;;;10.20;99.90;;;;;;4961222;28;20049;-80
2021/12/25 14:36:01;;;;;;;10.27;6.03;;;10.20;99.90;;;;;;4942518;28;20055;-81
2021/12/25 14:38:38;;;;;;;11.18;6.90;;;10.20;99.90;;;;;;4959012;28;20674;-80
2021/12/25 14:41:09;;;;;;;9.75;6.32;;;10.20;99.90;;;;;;4963987;28;20482;-80
2021/12/25 14:43:37;;;;;;;11.07;7.00;;;10.20;99.90;;;;;;4958428;28;20047;-82
2021/12/25 14:46:09;;;;;;;12.38;7.72;;;10.20;99.90;;;;;;4965064;28;20057;-81
2021/12/25 14:48:41;;;;;;;12.00;7.20;;;10.20;99.90;;;;;;4959249;28;20050;-80
2021/12/25 14:51:11;;;;;;;12.65;7.68;;;10.20;99.90;;;;;;4958141;28;20059;-79
2021/12/25 14:53:46;;;;;;;13.13;7.68;;;10.20;99.90;;;;;;4957801;28;20138;-81
2021/12/25 14:56:19;;;;;;;12.02;7.57;;;10.30;99.90;;;;;;4951350;28;20069;-82
2021/12/25 14:58:51;;;;;;;11.45;7.50;;;10.30;99.90;;;;;;4934455;29;20045;-83
2021/12/25 15:01:23;;;;;;;13.70;8.70;;;10.30;99.90;;;;;;4951710;28;20174;-82
2021/12/25 15:04:04;;;;;;;13.82;8.00;;;10.30;99.90;;;;;;4955210;28;20047;-82
2021/12/25 15:06:33;;;;;;;12.57;7.55;;;10.30;99.90;;;;;;4953163;28;20345;-82
2021/12/25 15:09:06;;;;;;;13.63;8.20;;;10.30;99.90;;;;;;4952231;28;20454;-83
2021/12/25 15:11:39;;;;;;;12.68;7.50;;;10.30;99.90;;;;;;4950635;28;20058;-81
2021/12/25 15:14:10;;;;;;;10.35;6.93;;;10.20;99.90;;;;;;4951401;28;20047;-83
2021/12/25 15:16:40;;;;;;;10.50;7.05;;;10.20;99.90;;;;;;4954039;28;20062;-80
2021/12/25 15:19:08;;;;;;;10.52;6.47;;;10.20;99.90;;;;;;4959543;28;20082;-79
2021/12/25 15:21:47;;;;;;;11.25;6.75;;;10.20;99.90;;;;;;4958583;28;20508;-80
2021/12/25 15:24:17;;;;;;;9.65;6.47;;;10.20;99.90;;;;;;4965503;28;20436;-81
2021/12/25 15:26:49;;;;;;;11.27;6.88;;;10.20;99.90;;;;;;4964464;28;20476;-81
2021/12/25 15:29:16;;;;;;;11.15;6.50;;;10.10;99.90;;;;;;4965177;28;20056;-80
2021/12/25 15:31:44;;;;;;;11.55;6.82;;;10.20;99.90;;;;;;4963889;28;20597;-82
2021/12/25 15:34:16;;;;;;;10.10;6.60;;;10.10;99.90;;;;;;4970970;28;20051;-81
2021/12/25 15:36:45;;;;;;;9.75;5.85;;;10.10;99.90;;;;;;4963459;28;20054;-81
2021/12/25 15:39:18;;;;;;;9.45;6.20;;;10.10;99.90;;;;;;4955952;28;20062;-81
2021/12/25 15:41:49;;;;;;;11.50;6.30;;;10.10;99.90;;;;;;4957586;28;20142;-81
2021/12/25 15:44:19;;;;;;;10.48;5.85;;;10.10;99.90;;;;;;4971850;28;20370;-81
2021/12/25 15:46:48;;;;;;;8.00;4.88;;;10.10;99.90;;;;;;4958152;28;20452;-80
2021/12/25 15:49:15;;;;;;;7.90;5.00;;;10.10;99.90;;;;;;4956340;28;20515;-80
2021/12/25 15:51:50;;;;;;;7.75;4.60;;;10.00;99.90;;;;;;4963526;28;20548;-81
2021/12/25 15:54:19;;;;;;;9.05;4.90;;;10.00;99.90;;;;;;4964049;28;20058;-81
2021/12/25 15:56:47;;;;;;;18.67;9.48;;;10.10;99.90;;;;;;4957174;28;20557;-82
2021/12/25 15:59:14;;;;;;;17.90;9.20;;;10.00;99.90;;;;;;4957156;28;20142;-82
2021/12/25 16:01:41;;;;;;;20.00;10.15;;;10.00;99.90;;;;;;4961540;28;20446;-82
2021/12/25 16:04:08;;;;;;;19.17;10.30;;;10.00;99.90;;;;;;4960380;28;20065;-83
2021/12/25 16:06:36;;;;;;;14.88;8.30;;;10.00;99.90;;;;;;4959775;28;20054;-81
2021/12/25 16:09:04;;;;;;;11.63;6.90;;;10.00;99.90;;;;;;4961151;28;20141;-83
2021/12/25 16:11:32;;;;;;;8.88;5.45;;;10.00;99.90;;;;;;4959200;28;20483;-84
2021/12/25 16:14:01;;;;;;;8.15;4.72;;;10.00;99.90;;;;;;4973301;28;20213;-83
2021/12/25 16:16:28;;;;;;;7.97;5.05;;;10.00;99.90;;;;;;4971906;28;20125;-82
2021/12/25 16:18:56;;;;;;;7.18;4.65;;;10.00;99.90;;;;;;4970162;28;20565;-82
2021/12/25 16:21:25;;;;;;;7.63;4.40;;;10.00;99.90;;;;;;4968963;28;20145;-84
2021/12/25 16:23:52;;;;;;;8.25;4.30;;;10.00;99.90;;;;;;4968070;28;20055;-81
2021/12/25 16:26:20;;;;;;;6.57;3.42;;;10.00;99.90;;;;;;4966589;28;20432;-81
2021/12/25 16:28:47;;;;;;;7.55;3.67;;;10.00;99.90;;;;;;4962523;28;20051;-80
2021/12/25 16:31:16;;;;;;;6.45;3.33;;;10.00;99.90;;;;;;4963024;28;20130;-80
2021/12/25 16:33:45;;;;;;;6.05;3.58;;;10.00;99.90;;;;;;4962103;28;20077;-80
2021/12/25 16:36:12;;;;;;;6.53;3.90;;;10.00;99.90;;;;;;4979507;28;20492;-81
2021/12/25 16:38:39;;;;;;;6.70;4.45;;;10.00;99.90;;;;;;4964300;28;20043;-80
2021/12/25 16:41:07;;;;;;;7.55;3.92;;;9.90;99.90;;;;;;4960295;28;20053;-80
2021/12/25 16:43:38;;;;;;;6.43;4.13;;;9.90;99.90;;;;;;4960470;28;20420;-81
2021/12/25 16:46:08;;;;;;;6.15;3.80;;;9.90;99.90;;;;;;4967236;28;20052;-79
2021/12/25 16:48:37;;;;;;;6.47;3.90;;;9.90;99.90;;;;;;4960529;28;20075;-79
2021/12/25 16:51:06;;;;;;;7.00;4.43;;;9.90;99.90;;;;;;4961906;28;20105;-80
2021/12/25 16:53:34;;;;;;;8.13;4.85;;;9.90;99.90;;;;;;4960506;28;20489;-81
2021/12/25 16:56:01;;;;;;;6.35;4.38;;;9.90;99.90;;;;;;4967664;28;20111;-81
2021/12/25 16:58:28;;;;;;;7.70;4.80;;;9.90;99.90;;;;;;4972445;28;20138;-81
2021/12/25 17:00:55;;;;;;;6.95;4.45;;;9.90;99.90;;;;;;4958418;28;20130;-80
2021/12/25 17:03:22;;;;;;;8.50;4.97;;;9.80;99.90;;;;;;4958624;28;20133;-81
2021/12/25 17:05:53;;;;;;;7.88;4.80;;;9.80;99.90;;;;;;4952705;29;20142;-79
2021/12/25 17:08:21;;;;;;;7.88;5.10;;;9.80;99.90;;;;;;4972745;28;20050;-81
2021/12/25 17:10:48;;;;;;;9.43;4.85;;;9.80;99.90;;;;;;4967655;28;20047;-82
2021/12/25 17:13:16;;;;;;;7.97;4.82;;;9.80;99.90;;;;;;4972275;28;20065;-83
2021/12/25 17:15:48;;;;;;;8.10;4.68;;;9.80;99.90;;;;;;4965090;28;20057;-80
2021/12/25 17:18:16;;;;;;;7.78;4.93;;;9.70;99.90;;;;;;4955250;28;20047;-79
2021/12/25 17:20:49;;;;;;;8.27;5.38;;;9.80;99.90;;;;;;4956350;28;20055;-81
2021/12/25 17:23:18;;;;;;;8.05;5.10;;;9.80;99.90;;;;;;4958939;28;20516;-84
2021/12/25 17:25:45;;;;;;;8.57;5.70;;;9.80;99.90;;;;;;4966142;28;20102;-83
2021/12/25 17:28:13;;;;;;;8.02;5.28;;;9.80;99.90;;;;;;4963447;28;20492;-82
2021/12/25 17:30:46;;;;;;;9.93;5.97;;;9.80;99.90;;;;;;4962117;28;20039;-82
2021/12/25 17:33:14;;;;;;;10.18;5.88;;;9.80;99.90;;;;;;4961332;28;20050;-82
2021/12/25 17:35:42;;;;;;;6.95;4.75;;;9.80;99.90;;;;;;4960428;28;20051;-82
2021/12/25 17:38:09;;;;;;;7.47;5.18;;;9.70;99.90;;;;;;4940783;28;20051;-82
2021/12/25 17:40:40;;;;;;;8.25;5.50;;;9.70;99.90;;;;;;4963737;28;20119;-84
2021/12/25 17:43:10;;;;;;;9.10;6.95;;;9.70;99.90;;;;;;4963835;28;20055;-82
2021/12/25 17:45:38;;;;;;;10.80;7.95;;;9.70;99.90;;;;;;4963511;28;20043;-82
2021/12/25 17:48:07;;;;;;;12.13;8.65;;;9.70;99.90;;;;;;4960571;28;20107;-81
2021/12/25 17:50:38;;;;;;;11.02;8.00;;;9.70;99.90;;;;;;4968389;28;20489;-80
2021/12/25 17:53:07;;;;;;;9.10;6.72;;;9.70;99.90;;;;;;4965926;28;20051;-80
2021/12/25 17:55:37;;;;;;;9.82;6.20;;;9.70;99.90;;;;;;4965773;28;20494;-80
2021/12/25 17:58:06;;;;;;;8.10;5.38;;;9.70;99.90;;;;;;4964472;28;20489;-80
2021/12/25 18:00:39;;;;;;;11.45;6.07;;;9.70;99.90;;;;;;4966716;28;20054;-81
2021/12/25 18:03:08;;;;;;;7.28;4.63;;;9.70;99.90;;;;;;4965495;28;20596;-81
2021/12/25 18:05:40;;;;;;;6.63;3.92;;;9.70;99.90;;;;;;4966869;28;20061;-81
2021/12/25 18:08:08;;;;;;;6.30;4.05;;;9.70;99.90;;;;;;4964508;28;20081;-81
2021/12/25 18:10:37;;;;;;;6.32;3.85;;;9.70;99.90;;;;;;4964744;28;20101;-80
2021/12/25 18:13:05;;;;;;;7.28;4.10;;;9.70;99.90;;;;;;4956053;28;20054;-78
2021/12/25 18:15:33;;;;;;;6.60;4.38;;;9.70;99.90;;;;;;4969806;28;20382;-80
2021/12/25 18:18:01;;;;;;;7.25;4.72;;;9.70;99.90;;;;;;4967349;28;20413;-78
2021/12/25 18:20:34;;;;;;;7.25;4.43;;;9.70;99.90;;;;;;4951925;28;20134;-81
2021/12/25 18:23:01;;;;;;;7.47;5.10;;;9.70;99.90;;;;;;4970107;28;20050;-78
2021/12/25 18:25:29;;;;;;;9.10;5.97;;;9.70;99.90;;;;;;4969912;28;20129;-80
2021/12/25 18:27:57;;;;;;;8.60;5.70;;;9.70;99.90;;;;;;4970504;28;20117;-78
2021/12/25 18:30:25;;;;;;;11.13;7.47;;;9.60;99.90;;;;;;4965076;28;20122;-80
2021/12/25 18:32:52;;;;;;;15.77;9.75;;;9.70;99.90;;;;;;4966351;28;20054;-82
2021/12/25 18:35:20;;;;;;;16.70;9.77;;;9.60;99.90;;;;;;4958238;28;20568;-83
2021/12/25 18:37:48;;;;;;;16.77;8.95;;;9.60;99.90;;;;;;4955835;28;20057;-81
2021/12/25 18:40:19;;;;;;;14.75;9.07;;;9.50;99.90;;;;;;4958481;28;20134;-78
2021/12/25 18:42:47;;;;;;;14.70;9.43;;;9.50;99.90;;;;;;4971239;28;20055;-79
2021/12/25 18:45:18;;;;;;;14.65;9.40;;;9.50;99.90;;;;;;4964844;28;20051;-80
2021/12/25 18:47:46;;;;;;;14.70;9.13;;;9.60;99.90;;;;;;4960165;28;20050;-80
2021/12/25 18:50:20;;;;;;;17.10;10.60;;;9.50;99.90;;;;;;4961894;28;20133;-79
2021/12/25 18:52:48;;;;;;;18.05;12.38;;;9.50;99.90;;;;;;4959143;28;20134;-80
2021/12/25 18:55:15;;;;;;;19.40;12.68;;;9.50;99.90;;;;;;4944505;28;20051;-83
2021/12/25 18:57:42;;;;;;;19.25;13.02;;;9.50;99.90;;;;;;4959773;28;20428;-82
2021/12/25 19:00:13;;;;;;;18.15;12.52;;;9.50;99.90;;;;;;4959368;28;20047;-83
2021/12/25 19:02:43;;;;;;;17.42;12.15;;;9.40;99.90;;;;;;4953352;28;20051;-81
2021/12/25 19:05:13;;;;;;;16.13;11.73;;;9.40;99.90;;;;;;4958131;28;20083;-81